RJFN(METAR)
07/27 17:00
METAR RJFN 270800Z 13006KT 100V160 9999 FEW020 32/20 Q1001 RMK
1CU020 A2956=
戻る
トップページへ戻る
IMOC Co,.Ltd.